QTR59Y EGKK-EDDF
Flight info
| Callsign | QTR59Y |
|---|---|
| Flight time | 0h 57m |
| Altitude | 33000 |
| Route | DVR UL9 KONAN UL607 KOK DCT REMBA UL607 SPI T180 NIVNU/N0437F230 T847 IMCOM IMCOM1B |
| Aircraft | B77L/H-SDE1E2E3FGHIJ2J3J4J5M1RWXY/LB1D1 |
Departure
| Time | 2026-05-04 12:14 |
|---|---|
| Airport | London Gatwick Airport (EGKK) |
Arrival
| Time | 2026-05-04 13:12 |
|---|---|
| Airport | Frankfurt Main Airport (EDDF) |
| Time | Latitude | Longitude | Altitude | Speed | Heading |
|---|---|---|---|---|---|
| 2026-05-04 11:38 | 51.15651 | -0.18824 | 205 ft | 0 kts | 347° |
| 2026-05-04 11:49 | 51.15652 | -0.18824 | 205 ft | 0 kts | 347° |
| 2026-05-04 11:51 | 51.15651 | -0.18824 | 205 ft | 0 kts | 347° |
| 2026-05-04 11:53 | 51.15647 | -0.18822 | 205 ft | 2 kts | 347° |
| 2026-05-04 11:53 | 51.15632 | -0.18816 | 205 ft | 2 kts | 346° |
| 2026-05-04 11:53 | 51.15618 | -0.18811 | 205 ft | 2 kts | 347° |
| 2026-05-04 11:53 | 51.15603 | -0.18805 | 206 ft | 2 kts | 349° |
| 2026-05-04 11:55 | 51.15589 | -0.18823 | 206 ft | 0 kts | 292° |
| 2026-05-04 11:56 | 51.15583 | -0.18811 | 205 ft | 0 kts | 276° |
| 2026-05-04 11:56 | 51.15583 | -0.18801 | 205 ft | 0 kts | 261° |
| 2026-05-04 11:56 | 51.15583 | -0.18802 | 205 ft | 0 kts | 261° |
| 2026-05-04 11:58 | 51.15582 | -0.18807 | 205 ft | 2 kts | 254° |
| 2026-05-04 11:58 | 51.15540 | -0.18821 | 206 ft | 10 kts | 173° |
| 2026-05-04 11:58 | 51.15459 | -0.18798 | 206 ft | 14 kts | 168° |
| 2026-05-04 11:59 | 51.15363 | -0.18764 | 206 ft | 13 kts | 167° |
| 2026-05-04 11:59 | 51.15301 | -0.18742 | 206 ft | 7 kts | 167° |
| 2026-05-04 11:59 | 51.15256 | -0.18727 | 206 ft | 6 kts | 168° |
| 2026-05-04 11:59 | 51.15247 | -0.18723 | 206 ft | 0 kts | 168° |
| 2026-05-04 12:00 | 51.15246 | -0.18723 | 206 ft | 0 kts | 168° |
| 2026-05-04 12:01 | 51.15243 | -0.18722 | 206 ft | 3 kts | 168° |
| 2026-05-04 12:01 | 51.15191 | -0.18704 | 206 ft | 8 kts | 168° |
| 2026-05-04 12:02 | 51.14985 | -0.19281 | 207 ft | 12 kts | 197° |
| 2026-05-04 12:03 | 51.14945 | -0.19402 | 207 ft | 15 kts | 258° |
| 2026-05-04 12:03 | 51.14922 | -0.19573 | 207 ft | 15 kts | 258° |
| 2026-05-04 12:03 | 51.14900 | -0.19733 | 207 ft | 14 kts | 258° |
| 2026-05-04 12:03 | 51.14880 | -0.19880 | 208 ft | 13 kts | 258° |
| 2026-05-04 12:04 | 51.14862 | -0.20017 | 208 ft | 12 kts | 257° |
| 2026-05-04 12:04 | 51.14844 | -0.20143 | 208 ft | 10 kts | 257° |
| 2026-05-04 12:04 | 51.14828 | -0.20254 | 208 ft | 9 kts | 257° |
| 2026-05-04 12:04 | 51.14814 | -0.20354 | 208 ft | 8 kts | 257° |
| 2026-05-04 12:05 | 51.14802 | -0.20441 | 208 ft | 7 kts | 258° |
| 2026-05-04 12:05 | 51.14791 | -0.20518 | 208 ft | 6 kts | 258° |
| 2026-05-04 12:05 | 51.14788 | -0.20598 | 208 ft | 9 kts | 288° |
| 2026-05-04 12:05 | 51.14848 | -0.20676 | 208 ft | 11 kts | 294° |
| 2026-05-04 12:06 | 51.14843 | -0.20784 | 209 ft | 8 kts | 258° |
| 2026-05-04 12:06 | 51.14836 | -0.20839 | 209 ft | 4 kts | 259° |
| 2026-05-04 12:06 | 51.14831 | -0.20885 | 209 ft | 3 kts | 259° |
| 2026-05-04 12:06 | 51.14826 | -0.20924 | 209 ft | 3 kts | 259° |
| 2026-05-04 12:07 | 51.14822 | -0.20958 | 209 ft | 2 kts | 258° |
| 2026-05-04 12:07 | 51.14815 | -0.21008 | 210 ft | 6 kts | 258° |
| 2026-05-04 12:07 | 51.14805 | -0.21082 | 210 ft | 6 kts | 258° |
| 2026-05-04 12:07 | 51.14793 | -0.21144 | 210 ft | 5 kts | 249° |
| 2026-05-04 12:08 | 51.14780 | -0.21199 | 210 ft | 6 kts | 252° |
| 2026-05-04 12:08 | 51.14769 | -0.21276 | 211 ft | 4 kts | 258° |
| 2026-05-04 12:08 | 51.14769 | -0.21281 | 211 ft | 0 kts | 258° |
| 2026-05-04 12:08 | 51.14769 | -0.21283 | 211 ft | 0 kts | 258° |
| 2026-05-04 12:09 | 51.14767 | -0.21293 | 211 ft | 0 kts | 258° |
| 2026-05-04 12:09 | 51.14766 | -0.21299 | 211 ft | 0 kts | 258° |
| 2026-05-04 12:09 | 51.14766 | -0.21302 | 211 ft | 0 kts | 257° |
| 2026-05-04 12:10 | 51.14762 | -0.21324 | 211 ft | 2 kts | 257° |
| 2026-05-04 12:10 | 51.14759 | -0.21345 | 211 ft | 1 kts | 253° |
| 2026-05-04 12:10 | 51.14756 | -0.21359 | 211 ft | 0 kts | 246° |
| 2026-05-04 12:10 | 51.14753 | -0.21367 | 211 ft | 1 kts | 237° |
| 2026-05-04 12:11 | 51.14747 | -0.21378 | 211 ft | 1 kts | 225° |
| 2026-05-04 12:11 | 51.14746 | -0.21380 | 211 ft | 0 kts | 222° |
| 2026-05-04 12:11 | 51.14727 | -0.21395 | 211 ft | 5 kts | 195° |
| 2026-05-04 12:12 | 51.14695 | -0.21387 | 211 ft | 5 kts | 151° |
| 2026-05-04 12:12 | 51.14664 | -0.21360 | 211 ft | 4 kts | 150° |
| 2026-05-04 12:12 | 51.14644 | -0.21343 | 211 ft | 0 kts | 156° |
| 2026-05-04 12:12 | 51.14609 | -0.21322 | 211 ft | 12 kts | 160° |
| 2026-05-04 12:13 | 51.14529 | -0.21240 | 211 ft | 13 kts | 122° |
| 2026-05-04 12:14 | 51.15507 | -0.14026 | 1688 ft | 179 kts | 76° |
| 2026-05-04 12:15 | 51.15777 | -0.12076 | 2104 ft | 188 kts | 76° |
| 2026-05-04 12:15 | 51.16057 | -0.10046 | 2624 ft | 189 kts | 76° |
| 2026-05-04 12:15 | 51.16336 | -0.08012 | 3161 ft | 189 kts | 77° |
| 2026-05-04 12:15 | 51.16616 | -0.05964 | 3658 ft | 192 kts | 77° |
| 2026-05-04 12:16 | 51.16874 | -0.03879 | 4099 ft | 197 kts | 84° |
| 2026-05-04 12:16 | 51.16878 | -0.01575 | 4334 ft | 215 kts | 91° |
| 2026-05-04 12:16 | 51.16825 | 0.00869 | 4622 ft | 232 kts | 91° |
| 2026-05-04 12:16 | 51.16774 | 0.03560 | 4933 ft | 249 kts | 91° |
| 2026-05-04 12:17 | 51.16723 | 0.06384 | 5317 ft | 263 kts | 91° |
| 2026-05-04 12:17 | 51.16670 | 0.09295 | 5901 ft | 268 kts | 91° |
| 2026-05-04 12:17 | 51.16615 | 0.12276 | 6528 ft | 272 kts | 92° |
| 2026-05-04 12:17 | 51.16557 | 0.15340 | 7167 ft | 275 kts | 92° |
| 2026-05-04 12:18 | 51.16544 | 0.18382 | 7793 ft | 278 kts | 90° |
| 2026-05-04 12:18 | 51.16563 | 0.21490 | 8406 ft | 281 kts | 90° |
| 2026-05-04 12:18 | 51.16576 | 0.24566 | 9019 ft | 282 kts | 90° |
| 2026-05-04 12:18 | 51.16584 | 0.27703 | 9579 ft | 286 kts | 90° |
| 2026-05-04 12:19 | 51.16589 | 0.30910 | 10118 ft | 290 kts | 91° |
| 2026-05-04 12:19 | 51.16593 | 0.34110 | 10631 ft | 295 kts | 90° |
| 2026-05-04 12:19 | 51.16595 | 0.37475 | 10874 ft | 311 kts | 90° |
| 2026-05-04 12:19 | 51.16597 | 0.40995 | 11109 ft | 327 kts | 90° |
| 2026-05-04 12:20 | 51.16598 | 0.44705 | 11353 ft | 344 kts | 90° |
| 2026-05-04 12:20 | 51.16598 | 0.48643 | 11641 ft | 359 kts | 90° |
| 2026-05-04 12:20 | 51.16598 | 0.52692 | 11941 ft | 374 kts | 90° |
| 2026-05-04 12:20 | 51.16596 | 0.56901 | 12396 ft | 384 kts | 90° |
| 2026-05-04 12:21 | 51.16593 | 0.61166 | 13081 ft | 389 kts | 90° |
| 2026-05-04 12:21 | 51.16588 | 0.65545 | 13801 ft | 393 kts | 91° |
| 2026-05-04 12:21 | 51.16581 | 0.69892 | 14582 ft | 397 kts | 91° |
| 2026-05-04 12:21 | 51.16572 | 0.74324 | 15430 ft | 400 kts | 91° |
| 2026-05-04 12:22 | 51.16562 | 0.78730 | 16267 ft | 403 kts | 91° |
| 2026-05-04 12:22 | 51.16549 | 0.83223 | 16866 ft | 408 kts | 91° |
| 2026-05-04 12:22 | 51.16534 | 0.87792 | 16975 ft | 409 kts | 91° |
| 2026-05-04 12:22 | 51.16516 | 0.92300 | 16983 ft | 409 kts | 91° |
| 2026-05-04 12:23 | 51.16497 | 0.96841 | 16984 ft | 409 kts | 91° |
| 2026-05-04 12:23 | 51.16477 | 1.01388 | 16985 ft | 409 kts | 91° |
| 2026-05-04 12:23 | 51.16455 | 1.05934 | 16984 ft | 410 kts | 91° |
| 2026-05-04 12:23 | 51.16431 | 1.10442 | 16982 ft | 409 kts | 91° |
| 2026-05-04 12:24 | 51.16405 | 1.14993 | 16982 ft | 409 kts | 91° |
| 2026-05-04 12:24 | 51.16379 | 1.19502 | 16981 ft | 410 kts | 91° |
| 2026-05-04 12:24 | 51.16350 | 1.24062 | 16979 ft | 409 kts | 91° |
| 2026-05-04 12:24 | 51.16319 | 1.28586 | 16978 ft | 409 kts | 91° |
| 2026-05-04 12:25 | 51.16287 | 1.33099 | 16976 ft | 408 kts | 91° |
| 2026-05-04 12:25 | 51.16247 | 1.37564 | 16976 ft | 409 kts | 93° |
| 2026-05-04 12:25 | 51.16045 | 1.42112 | 17059 ft | 418 kts | 95° |
| 2026-05-04 12:25 | 51.15805 | 1.46754 | 17910 ft | 419 kts | 95° |
| 2026-05-04 12:26 | 51.15572 | 1.51322 | 18920 ft | 416 kts | 95° |
| 2026-05-04 12:26 | 51.15336 | 1.55962 | 19596 ft | 422 kts | 95° |
| 2026-05-04 12:26 | 51.15100 | 1.60644 | 20101 ft | 431 kts | 95° |
| 2026-05-04 12:26 | 51.14859 | 1.65438 | 20720 ft | 437 kts | 96° |
| 2026-05-04 12:27 | 51.14615 | 1.70264 | 21347 ft | 442 kts | 97° |
| 2026-05-04 12:27 | 51.14369 | 1.75137 | 21985 ft | 447 kts | 97° |
| 2026-05-04 12:27 | 51.14118 | 1.80058 | 22564 ft | 452 kts | 97° |
| 2026-05-04 12:27 | 51.13860 | 1.85091 | 23183 ft | 456 kts | 97° |
| 2026-05-04 12:28 | 51.13601 | 1.90111 | 23725 ft | 461 kts | 98° |
| 2026-05-04 12:28 | 51.13340 | 1.95146 | 24334 ft | 464 kts | 98° |
| 2026-05-04 12:28 | 51.13071 | 2.00279 | 24998 ft | 466 kts | 98° |
| 2026-05-04 12:28 | 51.12800 | 2.05411 | 25546 ft | 470 kts | 98° |
| 2026-05-04 12:29 | 51.12524 | 2.10583 | 26025 ft | 475 kts | 98° |
| 2026-05-04 12:29 | 51.12243 | 2.15810 | 26565 ft | 479 kts | 98° |
| 2026-05-04 12:29 | 51.11955 | 2.21136 | 27158 ft | 482 kts | 98° |
| 2026-05-04 12:29 | 51.11666 | 2.26443 | 27708 ft | 485 kts | 98° |
| 2026-05-04 12:30 | 51.11374 | 2.31743 | 28233 ft | 489 kts | 98° |
| 2026-05-04 12:30 | 51.11073 | 2.37175 | 28790 ft | 492 kts | 98° |
| 2026-05-04 12:30 | 51.10768 | 2.42616 | 29358 ft | 495 kts | 98° |
| 2026-05-04 12:30 | 51.10463 | 2.48026 | 30065 ft | 495 kts | 98° |
| 2026-05-04 12:31 | 51.10155 | 2.53463 | 30975 ft | 490 kts | 98° |
| 2026-05-04 12:31 | 51.09851 | 2.58795 | 31725 ft | 486 kts | 98° |
| 2026-05-04 12:31 | 51.09486 | 2.64153 | 32232 ft | 484 kts | 103° |
| 2026-05-04 12:31 | 51.08727 | 2.69362 | 32602 ft | 483 kts | 110° |
| 2026-05-04 12:32 | 51.07805 | 2.74522 | 33016 ft | 484 kts | 110° |
| 2026-05-04 12:32 | 51.05955 | 2.84710 | 34050 ft | 480 kts | 110° |
| 2026-05-04 12:32 | 51.05022 | 2.89823 | 34480 ft | 480 kts | 110° |
| 2026-05-04 12:33 | 51.04100 | 2.94865 | 34825 ft | 482 kts | 111° |
| 2026-05-04 12:33 | 51.03150 | 3.00046 | 34941 ft | 483 kts | 111° |
| 2026-05-04 12:33 | 51.02255 | 3.04918 | 34955 ft | 481 kts | 111° |
| 2026-05-04 12:34 | 51.00375 | 3.15112 | 34953 ft | 481 kts | 111° |
| 2026-05-04 12:34 | 50.98488 | 3.25292 | 34950 ft | 479 kts | 111° |
| 2026-05-04 12:35 | 50.96605 | 3.35394 | 34949 ft | 481 kts | 111° |
| 2026-05-04 12:35 | 50.94698 | 3.45571 | 34951 ft | 482 kts | 111° |
| 2026-05-04 12:36 | 50.92791 | 3.55694 | 34947 ft | 481 kts | 111° |
| 2026-05-04 12:36 | 50.90875 | 3.65817 | 34947 ft | 480 kts | 112° |
| 2026-05-04 12:37 | 50.89008 | 3.75623 | 34954 ft | 480 kts | 112° |
| 2026-05-04 12:37 | 50.87083 | 3.85681 | 34955 ft | 481 kts | 112° |
| 2026-05-04 12:38 | 50.85203 | 3.95451 | 34957 ft | 480 kts | 112° |
| 2026-05-04 12:38 | 50.83308 | 4.05248 | 34965 ft | 481 kts | 112° |
| 2026-05-04 12:39 | 50.81343 | 4.15360 | 34967 ft | 478 kts | 112° |
| 2026-05-04 12:39 | 50.79381 | 4.25399 | 34972 ft | 479 kts | 112° |
| 2026-05-04 12:40 | 50.77419 | 4.35389 | 34972 ft | 480 kts | 112° |
| 2026-05-04 12:40 | 50.75441 | 4.45404 | 34976 ft | 480 kts | 112° |
| 2026-05-04 12:41 | 50.73450 | 4.55439 | 34972 ft | 480 kts | 112° |
| 2026-05-04 12:41 | 50.71483 | 4.65297 | 34980 ft | 479 kts | 113° |
| 2026-05-04 12:42 | 50.69450 | 4.75436 | 34973 ft | 478 kts | 113° |
| 2026-05-04 12:42 | 50.67473 | 4.85243 | 34962 ft | 482 kts | 113° |
| 2026-05-04 12:43 | 50.65520 | 4.94875 | 34968 ft | 480 kts | 113° |
| 2026-05-04 12:43 | 50.63480 | 5.04814 | 34975 ft | 488 kts | 114° |
| 2026-05-04 12:44 | 50.61375 | 5.15011 | 34971 ft | 502 kts | 113° |
| 2026-05-04 12:44 | 50.59203 | 5.25503 | 34975 ft | 501 kts | 113° |
| 2026-05-04 12:45 | 50.57039 | 5.35892 | 34977 ft | 503 kts | 113° |
| 2026-05-04 12:45 | 50.54849 | 5.46359 | 34981 ft | 504 kts | 113° |
| 2026-05-04 12:46 | 50.52654 | 5.56790 | 34983 ft | 503 kts | 113° |
| 2026-05-04 12:46 | 50.50539 | 5.67078 | 34980 ft | 507 kts | 112° |
| 2026-05-04 12:47 | 50.48584 | 5.77672 | 34967 ft | 505 kts | 111° |
| 2026-05-04 12:47 | 50.46709 | 5.87750 | 34967 ft | 507 kts | 111° |
| 2026-05-04 12:48 | 50.44814 | 5.97846 | 34284 ft | 496 kts | 112° |
| 2026-05-04 12:48 | 50.43969 | 6.02308 | 33319 ft | 502 kts | 112° |
| 2026-05-04 12:48 | 50.42890 | 6.07981 | 31907 ft | 512 kts | 111° |
| 2026-05-04 12:48 | 50.41877 | 6.13304 | 30976 ft | 511 kts | 111° |
| 2026-05-04 12:49 | 50.40875 | 6.18559 | 30507 ft | 502 kts | 111° |
| 2026-05-04 12:49 | 50.39894 | 6.23695 | 30136 ft | 492 kts | 111° |
| 2026-05-04 12:49 | 50.38918 | 6.28788 | 29665 ft | 485 kts | 111° |
| 2026-05-04 12:49 | 50.37949 | 6.33823 | 29143 ft | 478 kts | 111° |
| 2026-05-04 12:50 | 50.36993 | 6.38775 | 28629 ft | 472 kts | 110° |
| 2026-05-04 12:50 | 50.36322 | 6.43763 | 28121 ft | 472 kts | 101° |
| 2026-05-04 12:50 | 50.35974 | 6.48871 | 27594 ft | 467 kts | 99° |
| 2026-05-04 12:50 | 50.35664 | 6.53878 | 27076 ft | 462 kts | 99° |
| 2026-05-04 12:51 | 50.35348 | 6.58872 | 26531 ft | 457 kts | 99° |
| 2026-05-04 12:51 | 50.35037 | 6.63757 | 26020 ft | 452 kts | 99° |
| 2026-05-04 12:51 | 50.34750 | 6.68220 | 25527 ft | 448 kts | 100° |
| 2026-05-04 12:51 | 50.34441 | 6.73021 | 24994 ft | 443 kts | 100° |
| 2026-05-04 12:52 | 50.34159 | 6.77420 | 24508 ft | 439 kts | 99° |
| 2026-05-04 12:52 | 50.33866 | 6.81993 | 23999 ft | 448 kts | 101° |
| 2026-05-04 12:52 | 50.33340 | 6.86162 | 23522 ft | 447 kts | 109° |
| 2026-05-04 12:52 | 50.32237 | 6.90859 | 22963 ft | 440 kts | 118° |
| 2026-05-04 12:53 | 50.30995 | 6.95089 | 22448 ft | 435 kts | 117° |
| 2026-05-04 12:53 | 50.30013 | 6.99598 | 22412 ft | 442 kts | 107° |
| 2026-05-04 12:53 | 50.29544 | 7.04406 | 22602 ft | 456 kts | 97° |
| 2026-05-04 12:53 | 50.29530 | 7.08876 | 22623 ft | 461 kts | 91° |
| 2026-05-04 12:54 | 50.29644 | 7.13834 | 22608 ft | 458 kts | 91° |
| 2026-05-04 12:54 | 50.29764 | 7.18728 | 22297 ft | 450 kts | 91° |
| 2026-05-04 12:54 | 50.29879 | 7.23586 | 21563 ft | 450 kts | 90° |
| 2026-05-04 12:54 | 50.29994 | 7.28512 | 20788 ft | 450 kts | 90° |
| 2026-05-04 12:55 | 50.30104 | 7.33348 | 20227 ft | 445 kts | 90° |
| 2026-05-04 12:55 | 50.30213 | 7.38129 | 19753 ft | 439 kts | 90° |
| 2026-05-04 12:55 | 50.30318 | 7.42852 | 19226 ft | 434 kts | 90° |
| 2026-05-04 12:55 | 50.30420 | 7.47577 | 18628 ft | 431 kts | 90° |
| 2026-05-04 12:56 | 50.30519 | 7.52227 | 18080 ft | 426 kts | 90° |
| 2026-05-04 12:56 | 50.30615 | 7.56786 | 17522 ft | 422 kts | 90° |
| 2026-05-04 12:56 | 50.30709 | 7.61366 | 17132 ft | 414 kts | 90° |
| 2026-05-04 12:56 | 50.30791 | 7.65389 | 17018 ft | 400 kts | 91° |
| 2026-05-04 12:57 | 50.30878 | 7.69754 | 16914 ft | 385 kts | 91° |
| 2026-05-04 12:57 | 50.30957 | 7.73757 | 16785 ft | 373 kts | 91° |
| 2026-05-04 12:57 | 50.31034 | 7.77752 | 16505 ft | 365 kts | 91° |
| 2026-05-04 12:57 | 50.31104 | 7.81414 | 16386 ft | 352 kts | 91° |
| 2026-05-04 12:58 | 50.31175 | 7.85203 | 16239 ft | 342 kts | 91° |
| 2026-05-04 12:58 | 50.31214 | 7.88559 | 15914 ft | 337 kts | 96° |
| 2026-05-04 12:58 | 50.31035 | 7.92197 | 15483 ft | 335 kts | 98° |
| 2026-05-04 12:58 | 50.30808 | 7.95814 | 15066 ft | 333 kts | 99° |
| 2026-05-04 12:59 | 50.30579 | 7.99400 | 14684 ft | 330 kts | 99° |
| 2026-05-04 12:59 | 50.30352 | 8.02933 | 14279 ft | 328 kts | 98° |
| 2026-05-04 12:59 | 50.30117 | 8.06545 | 13786 ft | 345 kts | 98° |
| 2026-05-04 12:59 | 50.29869 | 8.10336 | 13264 ft | 347 kts | 98° |
| 2026-05-04 13:00 | 50.29625 | 8.14052 | 12763 ft | 347 kts | 98° |
| 2026-05-04 13:00 | 50.29377 | 8.17830 | 12254 ft | 347 kts | 98° |
| 2026-05-04 13:00 | 50.29129 | 8.21572 | 11772 ft | 346 kts | 98° |
| 2026-05-04 13:00 | 50.28885 | 8.25271 | 11628 ft | 334 kts | 98° |
| 2026-05-04 13:01 | 50.28651 | 8.28800 | 11582 ft | 319 kts | 98° |
| 2026-05-04 13:01 | 50.28426 | 8.32177 | 11370 ft | 312 kts | 98° |
| 2026-05-04 13:01 | 50.28200 | 8.35542 | 10999 ft | 311 kts | 98° |
| 2026-05-04 13:01 | 50.27975 | 8.38863 | 10617 ft | 310 kts | 98° |
| 2026-05-04 13:02 | 50.27746 | 8.42231 | 10263 ft | 307 kts | 98° |
| 2026-05-04 13:02 | 50.27522 | 8.45516 | 9910 ft | 305 kts | 98° |
| 2026-05-04 13:02 | 50.27303 | 8.48706 | 9549 ft | 303 kts | 98° |
| 2026-05-04 13:02 | 50.27078 | 8.51983 | 9195 ft | 301 kts | 97° |
| 2026-05-04 13:03 | 50.26857 | 8.55182 | 8857 ft | 299 kts | 97° |
| 2026-05-04 13:03 | 50.26637 | 8.58353 | 8685 ft | 290 kts | 97° |
| 2026-05-04 13:03 | 50.26424 | 8.61422 | 8409 ft | 286 kts | 97° |
| 2026-05-04 13:03 | 50.26215 | 8.64409 | 8052 ft | 286 kts | 97° |
| 2026-05-04 13:04 | 50.26004 | 8.67406 | 7704 ft | 285 kts | 98° |
| 2026-05-04 13:04 | 50.25788 | 8.70473 | 7379 ft | 282 kts | 98° |
| 2026-05-04 13:04 | 50.25624 | 8.72784 | 7122 ft | 281 kts | 98° |
| 2026-05-04 13:04 | 50.25398 | 8.75964 | 6752 ft | 279 kts | 97° |
| 2026-05-04 13:05 | 50.25214 | 8.78546 | 6463 ft | 278 kts | 97° |
| 2026-05-04 13:05 | 50.25000 | 8.81543 | 6140 ft | 277 kts | 97° |
| 2026-05-04 13:05 | 50.24735 | 8.84485 | 5780 ft | 275 kts | 108° |
| 2026-05-04 13:05 | 50.23814 | 8.87104 | 5328 ft | 273 kts | 136° |
| 2026-05-04 13:06 | 50.22274 | 8.88690 | 4988 ft | 268 kts | 160° |
| 2026-05-04 13:06 | 50.20526 | 8.89615 | 4691 ft | 265 kts | 163° |
| 2026-05-04 13:06 | 50.18774 | 8.90460 | 4349 ft | 265 kts | 164° |
| 2026-05-04 13:06 | 50.17017 | 8.91303 | 4208 ft | 256 kts | 163° |
| 2026-05-04 13:07 | 50.15336 | 8.91843 | 4138 ft | 241 kts | 183° |
| 2026-05-04 13:07 | 50.13782 | 8.91155 | 3954 ft | 233 kts | 215° |
| 2026-05-04 13:07 | 50.12527 | 8.89520 | 3946 ft | 236 kts | 223° |
| 2026-05-04 13:07 | 50.11362 | 8.87802 | 3948 ft | 234 kts | 224° |
| 2026-05-04 13:08 | 50.10434 | 8.85789 | 3923 ft | 227 kts | 246° |
| 2026-05-04 13:08 | 50.09862 | 8.83456 | 3639 ft | 229 kts | 250° |
| 2026-05-04 13:08 | 50.09335 | 8.81129 | 3346 ft | 228 kts | 250° |
| 2026-05-04 13:08 | 50.08804 | 8.78825 | 3050 ft | 228 kts | 249° |
| 2026-05-04 13:09 | 50.08262 | 8.76519 | 2762 ft | 226 kts | 249° |
| 2026-05-04 13:09 | 50.07730 | 8.74277 | 2482 ft | 217 kts | 249° |
| 2026-05-04 13:09 | 50.07227 | 8.72162 | 2201 ft | 197 kts | 249° |
| 2026-05-04 13:09 | 50.06774 | 8.70258 | 1955 ft | 183 kts | 249° |
| 2026-05-04 13:10 | 50.06344 | 8.68457 | 1715 ft | 171 kts | 249° |
| 2026-05-04 13:10 | 50.05947 | 8.66791 | 1506 ft | 161 kts | 249° |
| 2026-05-04 13:10 | 50.05563 | 8.65176 | 1285 ft | 159 kts | 249° |
| 2026-05-04 13:10 | 50.05175 | 8.63553 | 1066 ft | 160 kts | 249° |
| 2026-05-04 13:11 | 50.04798 | 8.61967 | 855 ft | 162 kts | 249° |
| 2026-05-04 13:11 | 50.04419 | 8.60376 | 644 ft | 162 kts | 249° |
| 2026-05-04 13:11 | 50.04030 | 8.58755 | 437 ft | 161 kts | 249° |
| 2026-05-04 13:11 | 50.03660 | 8.57202 | 381 ft | 137 kts | 250° |
| 2026-05-04 13:12 | 50.03369 | 8.55993 | 380 ft | 98 kts | 250° |
| 2026-05-04 13:12 | 50.03205 | 8.55301 | 380 ft | 40 kts | 249° |
| 2026-05-04 13:12 | 50.03178 | 8.54965 | 380 ft | 19 kts | 279° |
| 2026-05-04 13:12 | 50.03186 | 8.54897 | 380 ft | 6 kts | 279° |
| 2026-05-04 13:13 | 50.03193 | 8.54828 | 380 ft | 6 kts | 279° |
| 2026-05-04 13:13 | 50.03199 | 8.54764 | 380 ft | 5 kts | 279° |
| 2026-05-04 13:13 | 50.03205 | 8.54707 | 380 ft | 5 kts | 279° |
| 2026-05-04 13:13 | 50.03209 | 8.54672 | 380 ft | 0 kts | 279° |
| 2026-05-04 13:14 | 50.03211 | 8.54658 | 380 ft | 6 kts | 289° |
| 2026-05-04 13:14 | 50.03265 | 8.54609 | 380 ft | 10 kts | 12° |
| 2026-05-04 13:15 | 50.03307 | 8.54700 | 380 ft | 11 kts | 69° |
| 2026-05-04 13:15 | 50.03334 | 8.54809 | 380 ft | 9 kts | 65° |
| 2026-05-04 13:15 | 50.03383 | 8.54847 | 380 ft | 7 kts | 22° |
| 2026-05-04 13:15 | 50.03388 | 8.54850 | 380 ft | 0 kts | 20° |
| 2026-05-04 13:16 | 50.03392 | 8.54852 | 380 ft | 2 kts | 20° |
| 2026-05-04 13:16 | 50.03406 | 8.54858 | 380 ft | 3 kts | 10° |
| 2026-05-04 13:16 | 50.03456 | 8.54848 | 380 ft | 11 kts | 339° |
| 2026-05-04 13:17 | 50.03540 | 8.54797 | 380 ft | 12 kts | 339° |
| 2026-05-04 13:17 | 50.03618 | 8.54749 | 380 ft | 11 kts | 339° |
| 2026-05-04 13:17 | 50.03689 | 8.54708 | 381 ft | 10 kts | 340° |
| 2026-05-04 13:17 | 50.03738 | 8.54657 | 381 ft | 7 kts | 273° |
| 2026-05-04 13:18 | 50.03714 | 8.54553 | 381 ft | 15 kts | 249° |
| 2026-05-04 13:18 | 50.03675 | 8.54392 | 381 ft | 15 kts | 250° |
| 2026-05-04 13:18 | 50.03638 | 8.54235 | 380 ft | 14 kts | 250° |
| 2026-05-04 13:18 | 50.03601 | 8.54083 | 380 ft | 14 kts | 250° |
| 2026-05-04 13:19 | 50.03566 | 8.53938 | 380 ft | 13 kts | 251° |
| 2026-05-04 13:19 | 50.03537 | 8.53805 | 380 ft | 12 kts | 251° |
| 2026-05-04 13:19 | 50.03509 | 8.53682 | 380 ft | 11 kts | 251° |
| 2026-05-04 13:19 | 50.03483 | 8.53568 | 380 ft | 10 kts | 251° |
| 2026-05-04 13:20 | 50.03493 | 8.53481 | 380 ft | 8 kts | 344° |
| 2026-05-04 13:20 | 50.03551 | 8.53508 | 380 ft | 8 kts | 24° |
| 2026-05-04 13:20 | 50.03603 | 8.53544 | 381 ft | 7 kts | 24° |
| 2026-05-04 13:20 | 50.03660 | 8.53571 | 381 ft | 10 kts | 358° |
| 2026-05-04 13:21 | 50.03706 | 8.53505 | 381 ft | 10 kts | 264° |
| 2026-05-04 13:21 | 50.03683 | 8.53382 | 381 ft | 11 kts | 253° |
| 2026-05-04 13:21 | 50.03658 | 8.53275 | 381 ft | 9 kts | 249° |
| 2026-05-04 13:21 | 50.03634 | 8.53179 | 381 ft | 8 kts | 249° |
| 2026-05-04 13:22 | 50.03636 | 8.53134 | 381 ft | 2 kts | 343° |
| 2026-05-04 13:22 | 50.03677 | 8.53114 | 381 ft | 8 kts | 342° |
| 2026-05-04 13:22 | 50.03705 | 8.53098 | 381 ft | 0 kts | 340° |